createdAt,value
2022-11-15T00:03:27.771Z,16.92
2022-11-15T00:05:54.709Z,16.95
2022-11-15T00:08:24.284Z,16.00
2022-11-15T00:10:58.583Z,17.77
2022-11-15T00:13:25.783Z,16.63
2022-11-15T00:15:52.827Z,17.33
2022-11-15T00:18:19.986Z,17.83
2022-11-15T00:20:46.902Z,16.80
2022-11-15T00:23:13.618Z,17.33
2022-11-15T00:25:40.395Z,19.90
2022-11-15T00:28:07.164Z,17.88
2022-11-15T00:30:34.047Z,19.20
2022-11-15T00:33:07.563Z,19.23
2022-11-15T00:35:35.314Z,17.90
2022-11-15T00:38:03.399Z,18.33
2022-11-15T00:40:30.378Z,17.80
2022-11-15T00:42:58.269Z,19.33
2022-11-15T00:45:25.453Z,19.23
2022-11-15T00:47:53.014Z,18.00
2022-11-15T00:50:20.122Z,19.80
2022-11-15T00:52:46.954Z,18.52
2022-11-15T00:55:18.478Z,18.58
2022-11-15T00:57:47.187Z,19.52
2022-11-15T01:00:14.482Z,17.52
2022-11-15T01:02:41.223Z,18.42
2022-11-15T01:05:09.043Z,18.00
2022-11-15T01:07:36.282Z,17.23
2022-11-15T01:10:03.601Z,19.60
2022-11-15T01:12:31.448Z,18.27
2022-11-15T01:14:58.270Z,17.15
2022-11-15T01:17:25.278Z,19.05
2022-11-15T01:19:52.029Z,18.08
2022-11-15T01:22:18.781Z,18.98
2022-11-15T01:24:45.458Z,18.88
2022-11-15T01:27:12.153Z,18.73
2022-11-15T01:29:38.917Z,18.98
2022-11-15T01:32:05.708Z,19.98
2022-11-15T01:34:32.356Z,17.27
2022-11-15T01:36:59.781Z,19.13
2022-11-15T01:39:27.401Z,19.67
2022-11-15T01:41:54.217Z,18.88
2022-11-15T01:44:35.829Z,20.20
2022-11-15T01:47:28.993Z,18.35
2022-11-15T01:49:58.402Z,19.77
2022-11-15T01:52:27.420Z,19.58
2022-11-15T01:55:18.068Z,19.65
2022-11-15T01:57:48.380Z,20.95
2022-11-15T02:00:15.453Z,19.23
2022-11-15T02:02:42.236Z,20.17
2022-11-15T02:05:09.121Z,18.70
2022-11-15T02:07:36.907Z,19.70
2022-11-15T02:10:12.786Z,17.92
2022-11-15T02:12:40.126Z,18.38
2022-11-15T02:15:08.434Z,21.00
2022-11-15T02:18:02.708Z,19.27
2022-11-15T02:21:03.480Z,19.60
2022-11-15T02:23:55.863Z,18.90
2022-11-15T02:26:28.184Z,20.17
2022-11-15T02:29:11.752Z,19.27
2022-11-15T02:31:52.753Z,19.00
2022-11-15T02:34:29.514Z,18.42
2022-11-15T02:37:16.249Z,19.23
2022-11-15T02:40:10.678Z,17.33
2022-11-15T02:43:08.631Z,18.92
2022-11-15T02:45:43.014Z,18.10
2022-11-15T02:48:11.100Z,18.10
2022-11-15T02:50:38.503Z,17.40
2022-11-15T02:53:05.231Z,17.60
2022-11-15T02:55:37.242Z,17.80
2022-11-15T02:58:25.014Z,17.77
2022-11-15T03:00:59.673Z,18.58
2022-11-15T03:03:47.238Z,17.73
2022-11-15T03:06:23.376Z,17.25
2022-11-15T03:08:59.350Z,16.42
2022-11-15T03:11:26.369Z,16.58
2022-11-15T03:14:30.373Z,17.63
2022-11-15T03:17:03.852Z,16.08
2022-11-15T03:19:41.320Z,16.35
2022-11-15T03:22:12.467Z,17.90
2022-11-15T03:24:39.789Z,15.63
2022-11-15T03:27:13.856Z,16.27
2022-11-15T03:29:48.115Z,16.50
2022-11-15T03:32:20.257Z,18.17
2022-11-15T03:35:24.931Z,17.20
2022-11-15T03:38:09.597Z,16.38
2022-11-15T03:40:48.937Z,16.10
2022-11-15T03:43:45.059Z,16.10
2022-11-15T03:46:25.312Z,15.82
2022-11-15T03:49:03.566Z,15.70
2022-11-15T03:51:30.964Z,15.88
2022-11-15T03:53:57.628Z,16.80
2022-11-15T03:56:24.290Z,16.73
2022-11-15T03:58:50.991Z,17.17
2022-11-15T04:01:17.780Z,16.13
2022-11-15T04:03:44.577Z,16.23
2022-11-15T04:06:11.281Z,16.33
2022-11-15T04:08:37.938Z,16.38
2022-11-15T04:11:04.675Z,17.05
2022-11-15T04:13:31.621Z,14.65
2022-11-15T04:15:58.528Z,15.00
2022-11-15T04:18:25.348Z,15.57
2022-11-15T04:21:10.713Z,14.95
2022-11-15T04:24:06.371Z,15.60
2022-11-15T04:26:33.461Z,15.32
2022-11-15T04:29:38.609Z,15.43
2022-11-15T04:32:07.193Z,15.07
2022-11-15T04:34:34.068Z,15.52
2022-11-15T04:37:12.926Z,15.00
2022-11-15T04:39:43.954Z,14.52
2022-11-15T04:42:11.207Z,14.85
2022-11-15T04:44:37.912Z,14.68
2022-11-15T04:47:04.954Z,14.02
2022-11-15T04:49:31.632Z,14.18
2022-11-15T04:51:58.442Z,15.00
2022-11-15T04:54:25.102Z,13.35
2022-11-15T04:56:51.752Z,14.40
2022-11-15T04:59:18.485Z,14.48
2022-11-15T05:01:45.482Z,14.38
2022-11-15T05:04:21.260Z,14.18
2022-11-15T05:06:49.687Z,14.10
2022-11-15T05:09:17.162Z,15.30
2022-11-15T05:11:43.983Z,14.65
2022-11-15T05:14:10.773Z,13.68
2022-11-15T05:16:38.172Z,14.93
2022-11-15T05:19:05.605Z,13.18
2022-11-15T05:21:32.672Z,14.13
2022-11-15T05:23:59.779Z,14.50
2022-11-15T05:26:27.279Z,14.38
2022-11-15T05:28:56.345Z,14.60
2022-11-15T05:31:24.029Z,13.73
2022-11-15T05:33:54.653Z,14.60
2022-11-15T05:36:43.410Z,14.38
2022-11-15T05:39:10.425Z,14.10
2022-11-15T05:41:41.311Z,15.50
2022-11-15T05:44:11.178Z,15.13
2022-11-15T05:46:40.222Z,15.00
2022-11-15T05:49:12.327Z,14.43
2022-11-15T05:51:39.984Z,15.27
2022-11-15T05:54:08.670Z,14.90
2022-11-15T05:56:35.361Z,14.27
2022-11-15T05:59:03.053Z,15.48
2022-11-15T06:01:30.535Z,14.85
2022-11-15T06:03:57.186Z,15.60
2022-11-15T06:06:23.896Z,14.93
2022-11-15T06:08:50.566Z,15.07
2022-11-15T06:11:17.223Z,15.52
2022-11-15T06:13:43.956Z,15.27
2022-11-15T06:16:10.613Z,16.02
2022-11-15T06:18:38.020Z,14.55
2022-11-15T06:21:05.260Z,14.82
2022-11-15T06:23:36.039Z,15.05
2022-11-15T06:26:03.810Z,16.80
2022-11-15T06:28:32.193Z,15.25
2022-11-15T06:31:06.435Z,15.30
2022-11-15T06:33:33.702Z,14.40
2022-11-15T06:36:18.787Z,15.32
2022-11-15T06:38:46.055Z,14.57
2022-11-15T06:41:14.620Z,14.60
2022-11-15T06:43:41.924Z,14.65
2022-11-15T06:46:09.341Z,15.02
2022-11-15T06:48:37.198Z,15.25
2022-11-15T06:51:05.184Z,14.55
2022-11-15T06:53:32.676Z,13.90
2022-11-15T06:56:01.634Z,14.85
2022-11-15T06:58:28.768Z,14.85
2022-11-15T07:01:00.232Z,14.38
2022-11-15T07:03:27.361Z,13.90
2022-11-15T07:05:55.782Z,14.13
2022-11-15T07:08:23.636Z,14.27
2022-11-15T07:10:50.599Z,14.27
2022-11-15T07:13:17.371Z,13.95
2022-11-15T07:15:44.094Z,14.05
2022-11-15T07:18:10.782Z,12.88
2022-11-15T07:20:37.482Z,13.20
2022-11-15T07:23:05.726Z,13.90
2022-11-15T07:25:32.694Z,13.63
2022-11-15T07:28:00.480Z,13.68
2022-11-15T07:30:30.103Z,12.32
2022-11-15T07:33:01.311Z,13.45
2022-11-15T07:35:30.777Z,13.68
2022-11-15T07:38:04.276Z,12.03
2022-11-15T07:40:32.826Z,13.60
2022-11-15T07:43:07.480Z,12.07
2022-11-15T07:45:37.145Z,12.02
2022-11-15T07:48:03.945Z,11.75
2022-11-15T07:50:32.103Z,12.88
2022-11-15T07:53:00.288Z,12.63
2022-11-15T07:55:30.175Z,13.02
2022-11-15T07:58:07.720Z,11.70
2022-11-15T08:00:35.549Z,11.25
2022-11-15T08:03:10.045Z,12.65
2022-11-15T08:05:38.247Z,11.52
2022-11-15T08:08:05.657Z,11.27
2022-11-15T08:10:35.263Z,11.15
2022-11-15T08:13:08.721Z,11.15
2022-11-15T08:15:36.928Z,11.38
2022-11-15T08:18:12.475Z,11.77
2022-11-15T08:20:39.272Z,11.82
2022-11-15T08:23:07.209Z,12.20
2022-11-15T08:25:35.318Z,10.38
2022-11-15T08:28:05.024Z,10.82
2022-11-15T08:30:35.496Z,10.52
2022-11-15T08:33:02.204Z,10.93
2022-11-15T08:35:30.238Z,10.68
2022-11-15T08:37:59.763Z,11.25
2022-11-15T08:40:29.220Z,10.67
2022-11-15T08:42:56.000Z,10.30
2022-11-15T08:45:22.782Z,10.50
2022-11-15T08:47:53.983Z,10.88
2022-11-15T08:50:21.230Z,10.13
2022-11-15T08:52:49.234Z,10.65
2022-11-15T08:55:17.734Z,9.90
2022-11-15T08:57:45.899Z,9.70
2022-11-15T09:00:14.270Z,9.52
2022-11-15T09:02:41.518Z,10.18
2022-11-15T09:05:08.830Z,10.30
2022-11-15T09:07:35.668Z,9.40
2022-11-15T09:10:02.433Z,10.23
2022-11-15T09:12:29.437Z,9.85
2022-11-15T09:14:56.177Z,9.32
2022-11-15T09:20:10.289Z,9.45
2022-11-15T09:22:37.515Z,9.18
2022-11-15T09:25:08.544Z,10.18
2022-11-15T09:27:36.652Z,9.35
2022-11-15T09:30:03.602Z,8.93
2022-11-15T09:32:35.031Z,9.15
2022-11-15T09:35:05.925Z,8.50
2022-11-15T09:37:33.561Z,8.93
2022-11-15T09:40:00.263Z,7.63
2022-11-15T09:42:46.594Z,8.07
2022-11-15T09:45:29.697Z,8.38
2022-11-15T09:48:20.731Z,7.80
2022-11-15T09:50:50.767Z,7.32
2022-11-15T09:56:27.600Z,6.40
2022-11-15T09:59:15.460Z,6.70
2022-11-15T10:01:44.939Z,6.72
2022-11-15T10:04:12.205Z,6.07
2022-11-15T10:06:47.794Z,6.55
2022-11-15T10:09:24.074Z,6.20
2022-11-15T10:11:51.254Z,6.53
2022-11-15T10:14:23.502Z,5.75
2022-11-15T10:17:07.847Z,5.07
2022-11-15T10:20:11.993Z,5.45
2022-11-15T10:23:06.173Z,5.47
2022-11-15T10:25:36.509Z,5.07
2022-11-15T10:30:41.817Z,4.65
2022-11-15T10:33:32.264Z,4.88
2022-11-15T10:38:56.182Z,4.50
2022-11-15T10:41:32.993Z,4.53
2022-11-15T10:44:18.255Z,4.50
2022-11-15T10:46:56.636Z,4.18
2022-11-15T10:49:29.627Z,3.67
2022-11-15T10:52:00.299Z,3.38
2022-11-15T10:54:26.956Z,3.30
2022-11-15T10:56:56.977Z,3.15
2022-11-15T10:59:37.754Z,2.67
2022-11-15T11:02:38.849Z,2.45
2022-11-15T11:05:45.720Z,2.60
2022-11-15T11:08:15.493Z,2.50
2022-11-15T11:11:00.149Z,2.60
2022-11-15T11:13:34.786Z,2.13
2022-11-15T11:16:36.299Z,2.42
2022-11-15T11:19:38.872Z,2.35
2022-11-15T11:22:18.727Z,2.30
2022-11-15T11:24:55.927Z,2.00
2022-11-15T11:27:44.231Z,2.15
2022-11-15T11:30:22.800Z,2.20
2022-11-15T11:32:55.241Z,2.08
2022-11-15T11:35:31.770Z,2.03
2022-11-15T11:38:30.051Z,2.00
2022-11-15T11:41:08.439Z,1.90
2022-11-15T11:44:03.259Z,2.45
2022-11-15T11:46:51.469Z,2.03
2022-11-15T11:49:36.982Z,1.77
2022-11-15T11:52:24.206Z,1.80
2022-11-15T11:55:17.341Z,1.75
2022-11-15T11:58:13.149Z,2.22
2022-11-15T12:00:46.981Z,1.85
2022-11-15T12:03:25.266Z,1.80
2022-11-15T12:05:56.716Z,1.50
2022-11-15T12:08:45.235Z,1.70
2022-11-15T12:11:21.143Z,1.70
2022-11-15T12:13:52.063Z,1.65
2022-11-15T12:16:29.107Z,1.88
2022-11-15T12:19:00.017Z,1.75
2022-11-15T12:21:49.245Z,1.58
2022-11-15T12:24:30.886Z,1.88
2022-11-15T12:27:26.399Z,1.50
2022-11-15T12:29:58.716Z,1.50
2022-11-15T12:32:49.803Z,1.40
2022-11-15T12:35:38.053Z,1.65
2022-11-15T12:38:06.083Z,1.38
2022-11-15T12:40:59.874Z,1.40
2022-11-15T12:43:43.628Z,1.60
2022-11-15T12:46:31.518Z,1.40
2022-11-15T12:49:11.161Z,1.50
2022-11-15T12:51:44.031Z,1.50
2022-11-15T12:54:22.649Z,1.27
2022-11-15T12:57:04.327Z,1.63
2022-11-15T12:59:54.260Z,1.77
2022-11-15T13:02:32.261Z,1.58
2022-11-15T13:05:18.612Z,1.80
2022-11-15T13:07:48.283Z,1.85
2022-11-15T13:10:14.919Z,2.03
2022-11-15T13:12:47.585Z,2.08
2022-11-15T13:15:14.369Z,1.90
2022-11-15T13:17:45.996Z,1.85
2022-11-15T13:20:15.187Z,1.95
2022-11-15T13:22:55.776Z,1.70
2022-11-15T13:25:47.222Z,1.67
2022-11-15T13:28:17.009Z,1.63
2022-11-15T13:30:53.764Z,1.90
2022-11-15T13:33:37.448Z,2.00
2022-11-15T13:36:14.396Z,2.28
2022-11-15T13:38:42.328Z,1.92
2022-11-15T13:41:22.040Z,1.83
2022-11-15T13:43:50.710Z,1.98
2022-11-15T13:46:29.329Z,1.60
2022-11-15T13:49:02.010Z,2.00
2022-11-15T13:51:37.829Z,2.80
2022-11-15T13:54:14.318Z,1.95
2022-11-15T13:57:03.672Z,2.22
2022-11-15T13:59:33.567Z,2.15
2022-11-15T14:02:11.944Z,2.33
2022-11-15T14:04:46.101Z,2.20
2022-11-15T14:07:22.630Z,2.03
2022-11-15T14:09:49.866Z,2.20
2022-11-15T14:12:36.508Z,1.73
2022-11-15T14:15:31.412Z,2.20
2022-11-15T14:17:58.539Z,2.25
2022-11-15T14:20:31.839Z,2.10
2022-11-15T14:23:01.534Z,2.67
2022-11-15T14:25:37.289Z,2.38
2022-11-15T14:28:25.097Z,2.03
2022-11-15T14:30:58.153Z,2.45
2022-11-15T14:33:29.357Z,2.50
2022-11-15T14:35:58.138Z,2.20
2022-11-15T14:38:26.371Z,2.35
2022-11-15T14:40:54.617Z,2.42
2022-11-15T14:43:21.425Z,1.90
2022-11-15T14:45:48.186Z,2.25
2022-11-15T14:48:15.084Z,2.05
2022-11-15T14:50:41.806Z,2.28
2022-11-15T14:53:14.324Z,2.17
2022-11-15T14:55:41.089Z,2.28
2022-11-15T14:58:11.499Z,2.00
2022-11-15T15:03:06.189Z,1.70
2022-11-15T15:05:34.579Z,2.10
2022-11-15T15:08:01.854Z,1.92
2022-11-15T15:10:40.083Z,1.77
2022-11-15T15:13:22.062Z,1.85
2022-11-15T15:15:50.189Z,2.10
2022-11-15T15:18:17.580Z,1.88
2022-11-15T15:20:46.562Z,1.80
2022-11-15T15:23:21.184Z,1.70
2022-11-15T15:25:49.827Z,1.60
2022-11-15T15:28:16.934Z,1.95
2022-11-15T15:30:43.853Z,2.10
2022-11-15T15:33:10.548Z,1.92
2022-11-15T15:35:37.497Z,1.80
2022-11-15T15:38:05.011Z,1.75
2022-11-15T15:40:33.812Z,1.63
2022-11-15T15:43:01.005Z,1.50
2022-11-15T15:45:30.805Z,1.50
2022-11-15T15:47:57.653Z,1.80
2022-11-15T15:50:27.399Z,1.67
2022-11-15T15:52:56.287Z,1.67
2022-11-15T15:55:23.881Z,1.63
2022-11-15T15:57:51.313Z,1.75
2022-11-15T16:00:19.238Z,1.50
2022-11-15T16:02:46.466Z,1.50
2022-11-15T16:05:13.980Z,2.10
2022-11-15T16:07:41.079Z,3.47
2022-11-15T16:10:23.610Z,2.70
2022-11-15T16:12:50.651Z,1.60
2022-11-15T16:15:17.951Z,1.80
2022-11-15T16:17:58.609Z,1.70
2022-11-15T16:20:35.639Z,1.48
2022-11-15T16:23:08.809Z,1.50
2022-11-15T16:25:41.484Z,1.42
2022-11-15T16:28:21.901Z,1.50
2022-11-15T16:33:23.585Z,1.55
2022-11-15T16:35:50.380Z,1.73
2022-11-15T16:38:18.277Z,1.40
2022-11-15T16:40:45.037Z,1.50
2022-11-15T16:43:12.156Z,1.67
2022-11-15T16:45:38.930Z,1.75
2022-11-15T16:48:05.763Z,1.90
2022-11-15T16:50:41.276Z,1.60
2022-11-15T16:53:08.017Z,1.80
2022-11-15T16:55:34.881Z,1.73
2022-11-15T16:58:02.410Z,1.90
2022-11-15T17:00:29.226Z,1.73
2022-11-15T17:02:56.238Z,2.05
2022-11-15T17:05:24.366Z,2.05
2022-11-15T17:07:54.966Z,1.88
2022-11-15T17:10:23.525Z,1.73
2022-11-15T17:12:51.373Z,1.70
2022-11-15T17:15:18.800Z,1.90
2022-11-15T17:17:50.745Z,1.90
2022-11-15T17:20:18.896Z,1.90
2022-11-15T17:22:47.254Z,2.05
2022-11-15T17:25:14.442Z,2.03
2022-11-15T17:27:41.161Z,2.38
2022-11-15T17:30:09.948Z,1.85
2022-11-15T17:32:37.486Z,2.10
2022-11-15T17:35:12.034Z,2.22
2022-11-15T17:37:41.648Z,2.28
2022-11-15T17:40:08.897Z,2.42
2022-11-15T17:42:35.648Z,2.80
2022-11-15T17:45:08.047Z,2.20
2022-11-15T17:47:36.853Z,2.45
2022-11-15T17:50:04.295Z,2.42
2022-11-15T17:52:31.083Z,2.30
2022-11-15T17:54:57.811Z,2.63
2022-11-15T17:57:24.487Z,2.47
2022-11-15T17:59:51.157Z,2.53
2022-11-15T18:02:17.906Z,2.88
2022-11-15T18:04:44.586Z,2.85
2022-11-15T18:07:12.344Z,2.72
2022-11-15T18:09:42.257Z,2.97
2022-11-15T18:12:09.686Z,3.00
2022-11-15T18:14:36.595Z,3.08
2022-11-15T18:17:03.486Z,3.33
2022-11-15T18:19:30.183Z,2.92
2022-11-15T18:21:56.968Z,3.35
2022-11-15T18:24:31.363Z,3.38
2022-11-15T18:26:59.474Z,3.90
2022-11-15T18:29:26.444Z,3.58
2022-11-15T18:31:56.916Z,3.30
2022-11-15T18:34:25.518Z,3.15
2022-11-15T18:36:53.032Z,3.70
2022-11-15T18:39:20.333Z,3.35
2022-11-15T18:41:47.805Z,3.72
2022-11-15T18:44:15.149Z,3.88
2022-11-15T18:46:42.361Z,3.70
2022-11-15T18:49:10.450Z,3.40
2022-11-15T18:51:41.879Z,3.92
2022-11-15T18:54:10.995Z,3.88
2022-11-15T18:56:38.361Z,4.40
2022-11-15T18:59:06.198Z,3.80
2022-11-15T19:01:35.411Z,4.25
2022-11-15T19:04:08.418Z,3.92
2022-11-15T19:06:38.900Z,3.90
2022-11-15T19:09:06.046Z,3.78
2022-11-15T19:11:35.820Z,4.30
2022-11-15T19:14:10.177Z,6.80
2022-11-15T19:16:39.467Z,4.20
2022-11-15T19:19:10.386Z,4.78
2022-11-15T19:21:37.147Z,5.05
2022-11-15T19:24:04.088Z,5.05
2022-11-15T19:26:30.835Z,7.38
2022-11-15T19:28:59.669Z,5.68
2022-11-15T19:31:28.226Z,9.80
2022-11-15T19:33:55.668Z,8.52
2022-11-15T19:36:26.829Z,5.68
2022-11-15T19:38:55.143Z,4.80
2022-11-15T19:41:23.789Z,5.05
2022-11-15T19:43:51.685Z,4.97
2022-11-15T19:46:20.632Z,5.00
2022-11-15T19:48:47.878Z,5.60
2022-11-15T19:51:21.806Z,5.05
2022-11-15T19:53:50.012Z,4.68
2022-11-15T19:56:18.459Z,4.47
2022-11-15T19:58:45.779Z,5.05
2022-11-15T20:01:21.241Z,5.10
2022-11-15T20:03:48.992Z,5.35
2022-11-15T20:06:17.990Z,4.80
2022-11-15T20:08:46.046Z,4.35
2022-11-15T20:11:13.800Z,5.57
2022-11-15T20:13:41.247Z,4.88
2022-11-15T20:16:08.150Z,5.07
2022-11-15T20:18:35.846Z,5.15
2022-11-15T20:21:06.228Z,5.13
2022-11-15T20:23:33.309Z,5.15
2022-11-15T20:26:00.055Z,5.22
2022-11-15T20:28:28.568Z,4.80
2022-11-15T20:30:57.784Z,5.00
2022-11-15T20:33:25.299Z,5.20
2022-11-15T20:35:52.619Z,5.13
2022-11-15T20:38:21.134Z,4.93
2022-11-15T20:40:57.414Z,5.35
2022-11-15T20:43:25.883Z,5.15
2022-11-15T20:45:52.591Z,5.25
2022-11-15T20:48:19.288Z,5.55
2022-11-15T20:50:47.101Z,6.10
2022-11-15T20:53:16.406Z,5.55
2022-11-15T20:55:47.863Z,5.78
2022-11-15T20:58:15.606Z,5.68
2022-11-15T21:00:44.671Z,6.13
2022-11-15T21:03:12.555Z,5.75
2022-11-15T21:05:41.141Z,6.15
2022-11-15T21:08:08.859Z,6.88
2022-11-15T21:10:54.199Z,6.22
2022-11-15T21:13:21.679Z,6.45
2022-11-15T21:15:48.670Z,6.97
2022-11-15T21:18:15.642Z,6.63
2022-11-15T21:20:42.908Z,7.18
2022-11-15T21:23:09.937Z,7.95
2022-11-15T21:25:36.762Z,7.43
2022-11-15T21:28:03.629Z,7.47
2022-11-15T21:30:30.509Z,8.00
2022-11-15T21:32:57.216Z,8.50
2022-11-15T21:35:24.054Z,7.10
2022-11-15T21:37:56.371Z,7.68
2022-11-15T21:40:24.022Z,7.95
2022-11-15T21:42:50.891Z,8.50
2022-11-15T21:45:17.614Z,8.25
2022-11-15T21:47:46.380Z,8.05
2022-11-15T21:50:13.891Z,8.85
2022-11-15T21:52:41.008Z,8.20
2022-11-15T21:55:08.886Z,8.20
2022-11-15T21:57:35.599Z,8.52
2022-11-15T22:00:21.117Z,8.38
2022-11-15T22:02:47.803Z,8.65
2022-11-15T22:05:14.762Z,8.07
2022-11-15T22:07:41.424Z,8.30
2022-11-15T22:10:08.494Z,8.02
2022-11-15T22:12:35.161Z,8.23
2022-11-15T22:15:01.879Z,7.93
2022-11-15T22:17:48.521Z,7.70
2022-11-15T22:20:44.688Z,8.07
2022-11-15T22:23:02.504Z,7.68
2022-11-15T22:25:29.927Z,8.00
2022-11-15T22:27:57.010Z,7.70
2022-11-15T22:30:24.586Z,8.65
2022-11-15T22:32:51.279Z,8.25
2022-11-15T22:35:17.949Z,8.00
2022-11-15T22:37:44.616Z,7.80
2022-11-15T22:40:11.434Z,7.82
2022-11-15T22:42:38.123Z,8.18
2022-11-15T22:45:05.205Z,8.45
2022-11-15T22:47:31.933Z,7.82
2022-11-15T22:49:58.616Z,8.07
2022-11-15T22:52:25.268Z,8.90
2022-11-15T22:54:51.984Z,7.88
2022-11-15T22:57:18.649Z,7.72
2022-11-15T22:59:45.883Z,7.90
2022-11-15T23:02:12.544Z,7.57
2022-11-15T23:04:39.326Z,7.60
2022-11-15T23:07:06.158Z,7.43
2022-11-15T23:09:32.912Z,7.95
2022-11-15T23:12:18.122Z,8.13
2022-11-15T23:14:44.840Z,8.02
2022-11-15T23:17:11.509Z,7.68
2022-11-15T23:19:38.196Z,8.13
2022-11-15T23:22:23.302Z,7.75
2022-11-15T23:24:51.648Z,8.60
2022-11-15T23:27:20.052Z,7.72
2022-11-15T23:30:05.918Z,8.88
2022-11-15T23:32:51.166Z,8.48
2022-11-15T23:35:17.861Z,8.60
2022-11-15T23:37:44.546Z,8.48
2022-11-15T23:40:12.061Z,8.20
2022-11-15T23:42:38.770Z,8.52
2022-11-15T23:45:06.339Z,8.25
2022-11-15T23:47:33.091Z,8.15
2022-11-15T23:49:59.764Z,8.85
2022-11-15T23:52:26.497Z,8.75
2022-11-15T23:54:53.226Z,8.75
2022-11-15T23:57:20.040Z,8.13
2022-11-15T23:59:47.671Z,8.75
